Time;durP1;ratioP1;P1;durP2;ratioP2;P2;SDS_P1;SDS_P2;PMS_P1;PMS_P2;Temp;Humidity;BMP_temperature;BMP_pressure;BME280_temperature;BME280_humidity;BME280_pressure;Samples;Min_cycle;Max_cycle;Signal;HPM_P1;HPM_P2
2021/12/08 00:01:08;;;;;;;3.25;1.23;;;;;;;;;;4967943;28;20428;-66
2021/12/08 00:03:34;;;;;;;2.88;1.27;;;;;;;;;;4967449;28;20464;-66
2021/12/08 00:06:00;;;;;;;5.55;1.35;;;;;;;;;;4967162;28;20034;-66
2021/12/08 00:08:28;;;;;;;4.35;1.20;;;;;;;;;;4970418;28;20035;-65
2021/12/08 00:13:26;;;;;;;3.25;1.63;;;;;;;;;;4967219;28;20054;-65
2021/12/08 00:15:54;;;;;;;6.68;1.60;;;;;;;;;;4967909;28;20033;-66
2021/12/08 00:18:23;;;;;;;6.40;1.50;;;;;;;;;;4967480;28;20110;-67
2021/12/08 00:20:51;;;;;;;2.10;1.27;;;;;;;;;;4968325;28;20126;-66
2021/12/08 00:23:17;;;;;;;4.90;1.58;;;;;;;;;;4971070;28;20113;-66
2021/12/08 00:25:44;;;;;;;3.47;1.20;;;;;;;;;;4968371;28;20026;-65
2021/12/08 00:28:10;;;;;;;4.90;1.33;;;;;;;;;;4964993;28;20062;-67
2021/12/08 00:30:38;;;;;;;5.78;1.40;;;;;;;;;;4984273;28;20491;-65
2021/12/08 00:33:04;;;;;;;4.10;1.17;;;;;;;;;;4971656;28;20044;-66
2021/12/08 00:35:30;;;;;;;6.32;1.50;;;;;;;;;;4969052;28;20034;-65
2021/12/08 00:37:56;;;;;;;2.22;1.15;;;;;;;;;;4969264;28;20035;-69
2021/12/08 00:40:23;;;;;;;5.63;1.70;;;;;;;;;;4967018;28;20101;-66
2021/12/08 00:42:49;;;;;;;2.95;1.20;;;;;;;;;;4970841;28;20049;-65
2021/12/08 00:45:17;;;;;;;5.30;1.50;;;;;;;;;;4968074;28;20085;-67
2021/12/08 00:47:44;;;;;;;6.28;1.20;;;;;;;;;;4969329;28;20027;-65
2021/12/08 00:50:11;;;;;;;5.30;1.65;;;;;;;;;;4966487;28;20117;-67
2021/12/08 00:52:37;;;;;;;3.25;1.10;;;;;;;;;;4969184;28;20069;-67
2021/12/08 00:55:09;;;;;;;4.13;1.60;;;;;;;;;;4967302;28;20030;-65
2021/12/08 00:57:35;;;;;;;3.90;1.67;;;;;;;;;;4969347;28;20035;-65
2021/12/08 01:00:03;;;;;;;2.13;1.20;;;;;;;;;;4970677;28;20042;-66
2021/12/08 01:02:28;;;;;;;4.45;1.50;;;;;;;;;;4968640;28;21603;-64
2021/12/08 01:04:54;;;;;;;4.85;1.45;;;;;;;;;;4969039;28;20031;-68
2021/12/08 01:07:19;;;;;;;5.97;1.48;;;;;;;;;;4965634;28;20027;-67
2021/12/08 01:09:46;;;;;;;3.55;1.70;;;;;;;;;;4966190;28;20341;-66
2021/12/08 01:12:12;;;;;;;7.20;1.83;;;;;;;;;;4964448;28;20038;-65
2021/12/08 01:14:38;;;;;;;6.00;1.50;;;;;;;;;;4968357;28;20491;-65
2021/12/08 01:17:05;;;;;;;6.55;1.88;;;;;;;;;;4966173;28;20030;-65
2021/12/08 01:19:31;;;;;;;4.18;1.58;;;;;;;;;;4967335;28;20530;-66
2021/12/08 01:21:57;;;;;;;2.35;1.52;;;;;;;;;;4968193;28;20037;-66
2021/12/08 01:24:22;;;;;;;4.55;1.77;;;;;;;;;;4965858;28;20023;-66
2021/12/08 01:26:48;;;;;;;5.32;1.67;;;;;;;;;;4963746;28;20035;-66
2021/12/08 01:29:14;;;;;;;6.65;1.92;;;;;;;;;;4967034;28;20121;-65
2021/12/08 01:31:42;;;;;;;3.10;1.58;;;;;;;;;;4965050;28;20027;-66
2021/12/08 01:34:12;;;;;;;5.55;1.73;;;;;;;;;;4961715;28;20395;-66
2021/12/08 01:36:39;;;;;;;4.75;1.83;;;;;;;;;;4960725;28;20030;-66
2021/12/08 01:39:06;;;;;;;4.70;1.50;;;;;;;;;;4963767;28;20030;-66
2021/12/08 01:41:32;;;;;;;4.05;1.38;;;;;;;;;;4962363;28;20519;-66
2021/12/08 01:46:41;;;;;;;2.25;1.40;;;;;;;;;;4961438;28;20195;-65
2021/12/08 01:49:07;;;;;;;4.95;1.45;;;;;;;;;;4961696;28;20450;-65
2021/12/08 01:51:33;;;;;;;6.85;1.88;;;;;;;;;;4963548;28;20034;-66
2021/12/08 01:54:01;;;;;;;3.92;1.50;;;;;;;;;;4961631;28;20395;-66
2021/12/08 01:56:30;;;;;;;3.42;1.45;;;;;;;;;;4964280;28;20081;-66
2021/12/08 01:58:55;;;;;;;4.75;1.52;;;;;;;;;;4960894;28;20042;-66
2021/12/08 02:01:27;;;;;;;4.05;1.45;;;;;;;;;;4963984;28;20031;-66
2021/12/08 02:03:53;;;;;;;3.65;1.17;;;;;;;;;;4962860;28;20077;-66
2021/12/08 02:06:20;;;;;;;6.95;1.63;;;;;;;;;;4967476;28;20041;-66
2021/12/08 02:08:52;;;;;;;4.95;1.48;;;;;;;;;;4966712;28;20030;-67
2021/12/08 02:11:19;;;;;;;4.13;1.70;;;;;;;;;;4966906;28;20069;-66
2021/12/08 02:13:46;;;;;;;4.30;1.20;;;;;;;;;;4967898;28;20030;-66
2021/12/08 02:16:14;;;;;;;5.45;1.63;;;;;;;;;;4967386;28;20368;-66
2021/12/08 02:18:41;;;;;;;3.30;1.40;;;;;;;;;;4964130;28;20086;-67
2021/12/08 02:21:40;;;;;;;3.65;1.40;;;;;;;;;;4966005;28;20035;-67
2021/12/08 02:24:08;;;;;;;3.33;1.42;;;;;;;;;;4973920;28;20043;-67
2021/12/08 02:26:35;;;;;;;3.95;1.35;;;;;;;;;;4968232;28;20035;-67
2021/12/08 02:29:05;;;;;;;3.17;1.30;;;;;;;;;;4960723;28;20033;-67
2021/12/08 02:31:38;;;;;;;2.50;1.13;;;;;;;;;;4963190;28;20114;-65
2021/12/08 02:47:54;;;;;;;3.92;1.27;;;;;;;;;;4962403;28;20067;-66
2021/12/08 02:50:35;;;;;;;2.53;1.23;;;;;;;;;;4962782;28;20103;-66
2021/12/08 02:53:02;;;;;;;6.00;1.33;;;;;;;;;;4960971;28;20460;-66
2021/12/08 02:55:29;;;;;;;4.22;1.40;;;;;;;;;;4964456;28;21609;-66
2021/12/08 02:57:55;;;;;;;3.92;1.33;;;;;;;;;;4968784;28;20023;-67
2021/12/08 03:00:25;;;;;;;1.92;1.17;;;;;;;;;;4967666;28;20023;-65
2021/12/08 03:02:53;;;;;;;2.95;1.10;;;;;;;;;;4966092;28;20023;-66
2021/12/08 03:05:19;;;;;;;2.78;1.10;;;;;;;;;;4965704;28;20054;-66
2021/12/08 03:07:45;;;;;;;3.78;1.38;;;;;;;;;;4966130;28;20038;-66
2021/12/08 03:10:14;;;;;;;4.47;1.55;;;;;;;;;;4963734;28;20031;-66
2021/12/08 03:12:41;;;;;;;2.42;1.23;;;;;;;;;;4961347;28;22164;-66
2021/12/08 03:15:09;;;;;;;3.13;1.23;;;;;;;;;;4961569;28;20436;-65
2021/12/08 03:17:35;;;;;;;2.08;1.13;;;;;;;;;;4960339;28;20041;-66
2021/12/08 03:20:08;;;;;;;3.53;1.20;;;;;;;;;;4959855;28;20060;-66
2021/12/08 03:22:37;;;;;;;1.65;1.10;;;;;;;;;;4960266;28;20035;-66
2021/12/08 03:25:06;;;;;;;3.70;1.13;;;;;;;;;;4962288;28;20034;-65
2021/12/08 03:27:39;;;;;;;4.68;1.30;;;;;;;;;;4964968;28;20066;-65
2021/12/08 03:30:19;;;;;;;2.40;1.40;;;;;;;;;;4963839;28;20121;-65
2021/12/08 03:32:45;;;;;;;2.72;1.40;;;;;;;;;;4961428;28;20031;-65
2021/12/08 03:35:14;;;;;;;6.57;1.73;;;;;;;;;;4964323;28;20046;-65
2021/12/08 03:37:43;;;;;;;2.97;1.23;;;;;;;;;;4965630;28;20039;-65
2021/12/08 03:40:18;;;;;;;9.70;1.92;;;;;;;;;;4964208;28;20026;-64
2021/12/08 03:42:46;;;;;;;2.92;1.30;;;;;;;;;;4964641;28;20054;-64
2021/12/08 03:45:34;;;;;;;4.15;1.48;;;;;;;;;;4964354;28;20041;-64
2021/12/08 03:48:09;;;;;;;3.42;1.45;;;;;;;;;;4964790;28;20057;-64
2021/12/08 03:50:40;;;;;;;5.18;2.40;;;;;;;;;;4965268;28;20464;-64
2021/12/08 03:53:08;;;;;;;5.22;1.42;;;;;;;;;;4965870;28;20030;-64
2021/12/08 03:55:34;;;;;;;2.97;1.20;;;;;;;;;;4972163;28;20074;-64
2021/12/08 03:57:59;;;;;;;4.88;1.58;;;;;;;;;;4963905;28;20023;-64
2021/12/08 04:00:29;;;;;;;4.75;1.90;;;;;;;;;;4963204;28;20031;-64
2021/12/08 04:03:02;;;;;;;4.15;1.75;;;;;;;;;;4965472;28;20038;-64
2021/12/08 04:05:40;;;;;;;3.40;1.70;;;;;;;;;;4962103;28;20034;-65
2021/12/08 04:08:15;;;;;;;2.83;1.38;;;;;;;;;;4962545;28;20038;-65
2021/12/08 04:10:42;;;;;;;3.53;1.40;;;;;;;;;;4964745;28;20035;-65
2021/12/08 04:13:07;;;;;;;4.28;1.88;;;;;;;;;;4963039;28;20026;-64
2021/12/08 04:15:33;;;;;;;3.78;1.50;;;;;;;;;;4974694;28;20038;-64
2021/12/08 04:17:58;;;;;;;2.63;1.40;;;;;;;;;;4962728;28;20046;-64
2021/12/08 04:20:33;;;;;;;4.43;1.60;;;;;;;;;;4962193;28;20098;-65
2021/12/08 04:23:00;;;;;;;2.53;1.55;;;;;;;;;;4964344;28;20056;-65
2021/12/08 04:25:29;;;;;;;5.32;1.80;;;;;;;;;;4965032;28;20023;-64
2021/12/08 04:27:57;;;;;;;4.15;1.38;;;;;;;;;;4963211;28;20031;-65
2021/12/08 04:30:34;;;;;;;2.20;1.23;;;;;;;;;;4963978;28;20050;-64
2021/12/08 04:33:00;;;;;;;3.40;1.40;;;;;;;;;;4961932;28;20062;-64
2021/12/08 04:35:27;;;;;;;4.32;1.30;;;;;;;;;;4962625;28;20509;-64
2021/12/08 04:37:58;;;;;;;2.58;1.52;;;;;;;;;;4962728;28;20106;-64
2021/12/08 04:40:45;;;;;;;3.75;1.42;;;;;;;;;;4962753;28;20030;-64
2021/12/08 04:43:33;;;;;;;3.38;1.40;;;;;;;;;;4978821;28;20042;-64
2021/12/08 04:46:16;;;;;;;4.07;1.20;;;;;;;;;;4963194;28;20094;-64
2021/12/08 05:02:41;;;;;;;4.53;1.38;;;;;;;;;;4964992;28;20104;-64
2021/12/08 05:05:20;;;;;;;4.00;1.40;;;;;;;;;;4963513;28;20069;-64
2021/12/08 05:07:51;;;;;;;2.70;1.40;;;;;;;;;;4975420;28;20061;-65
2021/12/08 05:10:33;;;;;;;4.28;1.40;;;;;;;;;;4962171;28;20040;-65
2021/12/08 05:13:02;;;;;;;3.30;1.50;;;;;;;;;;4964406;28;20122;-64
2021/12/08 05:15:33;;;;;;;7.35;1.80;;;;;;;;;;4962829;28;20054;-64
2021/12/08 05:18:05;;;;;;;4.45;1.70;;;;;;;;;;4963764;28;21218;-64
2021/12/08 05:20:52;;;;;;;6.07;2.13;;;;;;;;;;4963883;28;20101;-64
2021/12/08 05:23:29;;;;;;;3.08;1.60;;;;;;;;;;4964295;28;20563;-66
2021/12/08 05:25:55;;;;;;;3.22;1.40;;;;;;;;;;4966009;28;20031;-64
2021/12/08 05:28:23;;;;;;;2.25;1.45;;;;;;;;;;4963115;28;20035;-65
2021/12/08 05:31:05;;;;;;;3.90;1.60;;;;;;;;;;4961921;28;20041;-64
2021/12/08 05:33:31;;;;;;;3.25;1.70;;;;;;;;;;4963450;28;20134;-63
2021/12/08 05:35:56;;;;;;;4.28;1.77;;;;;;;;;;4960589;28;20038;-66
2021/12/08 05:38:23;;;;;;;3.03;1.65;;;;;;;;;;4963966;28;20042;-64
2021/12/08 05:41:07;;;;;;;2.30;1.63;;;;;;;;;;4963918;28;20035;-64
2021/12/08 05:43:32;;;;;;;5.90;1.92;;;;;;;;;;4963415;28;20026;-64
2021/12/08 05:45:58;;;;;;;2.92;1.60;;;;;;;;;;4962364;28;20118;-64
2021/12/08 05:48:27;;;;;;;6.70;2.10;;;;;;;;;;4962039;28;20260;-64
2021/12/08 05:51:00;;;;;;;5.05;2.17;;;;;;;;;;4962673;28;20035;-64
2021/12/08 05:53:26;;;;;;;5.72;2.00;;;;;;;;;;4964542;28;20446;-64
2021/12/08 05:55:53;;;;;;;6.78;1.95;;;;;;;;;;4963544;28;20165;-64
2021/12/08 05:58:21;;;;;;;4.32;1.92;;;;;;;;;;4963809;28;20057;-64
2021/12/08 06:00:54;;;;;;;3.97;1.80;;;;;;;;;;4977980;28;20023;-64
2021/12/08 06:03:19;;;;;;;2.38;1.65;;;;;;;;;;4960854;28;20026;-64
2021/12/08 06:05:47;;;;;;;3.42;1.90;;;;;;;;;;4964049;28;20049;-64
2021/12/08 06:08:13;;;;;;;3.38;2.10;;;;;;;;;;4962919;28;20039;-64
2021/12/08 06:10:41;;;;;;;4.70;1.90;;;;;;;;;;4962194;28;20053;-64
2021/12/08 06:13:10;;;;;;;3.40;2.05;;;;;;;;;;4964038;28;20031;-64
2021/12/08 06:15:38;;;;;;;3.50;2.28;;;;;;;;;;4962285;28;20068;-64
2021/12/08 06:18:04;;;;;;;3.80;2.60;;;;;;;;;;4963566;28;20490;-64
2021/12/08 06:20:30;;;;;;;5.47;2.25;;;;;;;;;;4964107;28;20026;-63
2021/12/08 06:22:57;;;;;;;4.72;1.95;;;;;;;;;;4962032;28;20027;-65
2021/12/08 06:25:23;;;;;;;3.67;2.22;;;;;;;;;;4962590;28;20046;-63
2021/12/08 06:27:49;;;;;;;5.05;2.42;;;;;;;;;;4963305;28;20049;-64
2021/12/08 06:30:19;;;;;;;6.75;2.70;;;;;;;;;;4964159;28;20054;-64
2021/12/08 06:32:44;;;;;;;5.15;2.55;;;;;;;;;;4965669;28;20149;-64
2021/12/08 06:35:14;;;;;;;6.35;2.90;;;;;;;;;;4967155;28;20129;-64
2021/12/08 06:37:42;;;;;;;8.70;2.88;;;;;;;;;;4966327;28;20023;-64
2021/12/08 06:40:25;;;;;;;11.68;2.92;;;;;;;;;;4964240;28;20066;-64
2021/12/08 06:42:53;;;;;;;4.53;2.50;;;;;;;;;;4963646;28;20399;-62
2021/12/08 06:45:27;;;;;;;3.22;2.40;;;;;;;;;;4962933;28;20045;-65
2021/12/08 06:47:53;;;;;;;;;;;;;;;;;;4962693;28;20130;-63
2021/12/08 06:50:26;;;;;;;5.20;2.60;;;;;;;;;;4957557;28;20365;-66
2021/12/08 06:52:52;;;;;;;6.28;2.38;;;;;;;;;;4961242;28;20022;-65
2021/12/08 06:55:22;;;;;;;5.88;2.90;;;;;;;;;;4961396;28;20459;-63
2021/12/08 06:57:56;;;;;;;6.28;2.88;;;;;;;;;;4962330;28;20038;-64
2021/12/08 07:03:44;;;;;;;7.32;3.03;;;;;;;;;;4970666;28;20503;-64
2021/12/08 07:06:40;;;;;;;6.88;2.78;;;;;;;;;;4970482;28;20030;-64
2021/12/08 07:09:06;;;;;;;4.95;2.83;;;;;;;;;;4972490;28;20030;-64
2021/12/08 07:11:33;;;;;;;9.68;2.92;;;;;;;;;;4973187;28;20039;-64
2021/12/08 07:13:59;;;;;;;4.32;2.65;;;;;;;;;;4968930;28;20035;-64
2021/12/08 07:16:31;;;;;;;6.40;2.75;;;;;;;;;;4966414;28;20538;-63
2021/12/08 07:19:09;;;;;;;4.67;2.67;;;;;;;;;;4966659;28;20023;-63
2021/12/08 07:21:40;;;;;;;5.60;2.83;;;;;;;;;;4969774;28;20278;-66
2021/12/08 07:24:28;;;;;;;3.95;2.72;;;;;;;;;;4969460;28;20045;-65
2021/12/08 07:26:58;;;;;;;7.07;3.20;;;;;;;;;;4969448;28;20097;-63
2021/12/08 07:29:27;;;;;;;5.72;3.22;;;;;;;;;;4970010;28;20019;-64
2021/12/08 07:31:57;;;;;;;4.93;3.25;;;;;;;;;;4967110;28;20097;-64
2021/12/08 07:34:24;;;;;;;7.57;3.20;;;;;;;;;;4969096;28;20038;-64
2021/12/08 07:36:54;;;;;;;9.05;3.10;;;;;;;;;;4963911;28;20046;-65
2021/12/08 07:39:27;;;;;;;8.02;3.50;;;;;;;;;;4966844;28;20037;-65
2021/12/08 07:41:57;;;;;;;6.88;3.45;;;;;;;;;;4964274;28;20035;-63
2021/12/08 07:44:23;;;;;;;5.82;3.15;;;;;;;;;;4965052;28;20047;-64
2021/12/08 07:46:56;;;;;;;6.13;3.42;;;;;;;;;;4966701;28;20376;-63
2021/12/08 07:49:32;;;;;;;6.20;3.22;;;;;;;;;;4962507;28;20043;-63
2021/12/08 07:52:04;;;;;;;8.48;3.70;;;;;;;;;;4961198;28;20224;-63
2021/12/08 07:54:31;;;;;;;8.13;3.42;;;;;;;;;;4966697;28;20035;-64
2021/12/08 07:56:59;;;;;;;8.75;4.93;;;;;;;;;;4966482;28;20034;-66
2021/12/08 07:59:25;;;;;;;6.88;3.47;;;;;;;;;;4965612;28;20034;-65
2021/12/08 08:01:57;;;;;;;11.32;4.20;;;;;;;;;;4965273;28;20089;-65
2021/12/08 08:04:25;;;;;;;9.50;3.53;;;;;;;;;;4965591;28;20063;-66
2021/12/08 08:06:56;;;;;;;8.85;3.58;;;;;;;;;;4961731;28;20019;-65
2021/12/08 08:09:28;;;;;;;11.68;3.55;;;;;;;;;;4962163;28;20053;-64
2021/12/08 08:11:57;;;;;;;6.53;3.47;;;;;;;;;;4965506;28;20022;-65
2021/12/08 08:14:27;;;;;;;7.90;3.70;;;;;;;;;;4966009;28;20045;-63
2021/12/08 08:16:56;;;;;;;7.82;3.58;;;;;;;;;;4963470;28;20027;-65
2021/12/08 08:19:27;;;;;;;5.35;3.70;;;;;;;;;;4966718;28;20023;-65
2021/12/08 08:21:58;;;;;;;8.38;4.07;;;;;;;;;;4964912;28;20033;-64
2021/12/08 08:24:24;;;;;;;6.20;3.80;;;;;;;;;;4966030;28;20026;-64
2021/12/08 08:26:54;;;;;;;6.72;3.78;;;;;;;;;;4965587;28;20117;-65
2021/12/08 08:29:20;;;;;;;5.72;3.42;;;;;;;;;;4963439;28;20027;-65
2021/12/08 08:31:56;;;;;;;9.10;4.07;;;;;;;;;;4964868;28;20038;-65
2021/12/08 08:34:22;;;;;;;9.27;4.15;;;;;;;;;;4961923;28;20031;-66
2021/12/08 08:36:48;;;;;;;10.13;4.50;;;;;;;;;;4965935;28;20042;-65
2021/12/08 08:39:18;;;;;;;6.43;3.92;;;;;;;;;;4964675;28;20209;-63
2021/12/08 08:41:48;;;;;;;14.23;4.00;;;;;;;;;;4964608;28;20027;-66
2021/12/08 08:44:18;;;;;;;7.30;3.85;;;;;;;;;;4966388;28;20399;-65
2021/12/08 08:46:46;;;;;;;11.65;4.68;;;;;;;;;;4964809;28;20031;-64
2021/12/08 08:49:24;;;;;;;8.10;4.18;;;;;;;;;;4964385;28;20114;-64
2021/12/08 08:51:59;;;;;;;9.38;4.10;;;;;;;;;;4978161;28;20767;-64
2021/12/08 08:54:27;;;;;;;8.23;3.92;;;;;;;;;;4965000;28;20033;-64
2021/12/08 08:57:01;;;;;;;7.13;4.07;;;;;;;;;;4966992;28;20050;-64
2021/12/08 08:59:33;;;;;;;;;;;;;;;;;;4965549;28;20121;-64
2021/12/08 09:02:03;;;;;;;7.93;3.75;;;;;;;;;;4962848;28;19990;-66
2021/12/08 09:04:34;;;;;;;7.97;3.60;;;;;;;;;;4962122;28;20062;-66
2021/12/08 09:07:04;;;;;;;12.10;4.28;;;;;;;;;;4965114;28;20022;-65
2021/12/08 09:09:38;;;;;;;9.93;4.18;;;;;;;;;;4963500;28;20360;-65
2021/12/08 09:12:07;;;;;;;;;;;;;;;;;;4965222;28;20399;-62
2021/12/08 09:14:43;;;;;;;8.00;4.00;;;;;;;;;;4965649;28;19921;-64
2021/12/08 09:17:14;;;;;;;7.70;5.00;;;;;;;;;;4962076;28;20034;-66
2021/12/08 09:19:50;;;;;;;7.93;4.50;;;;;;;;;;4963013;28;20030;-65
2021/12/08 09:22:26;;;;;;;10.00;4.63;;;;;;;;;;4961407;28;20041;-66
2021/12/08 09:25:06;;;;;;;10.50;5.18;;;;;;;;;;4964448;28;20070;-65
2021/12/08 09:27:51;;;;;;;11.25;5.88;;;;;;;;;;4964821;28;20069;-63
2021/12/08 09:30:16;;;;;;;9.80;5.32;;;;;;;;;;4962826;28;20077;-63
2021/12/08 09:32:59;;;;;;;9.65;5.32;;;;;;;;;;4960842;28;20471;-63
2021/12/08 09:35:35;;;;;;;9.90;5.55;;;;;;;;;;4963286;28;20023;-66
2021/12/08 09:38:07;;;;;;;9.15;5.13;;;;;;;;;;4963437;28;20037;-64
2021/12/08 09:40:43;;;;;;;10.02;4.80;;;;;;;;;;4963836;28;20046;-66
2021/12/08 09:43:19;;;;;;;10.50;5.22;;;;;;;;;;4961761;28;20118;-64
2021/12/08 09:45:56;;;;;;;7.55;5.45;;;;;;;;;;4966210;28;20475;-66
2021/12/08 09:48:26;;;;;;;9.45;5.50;;;;;;;;;;4964226;28;20647;-65
2021/12/08 09:50:53;;;;;;;9.32;5.10;;;;;;;;;;4963277;28;20126;-65
2021/12/08 09:53:18;;;;;;;6.97;4.70;;;;;;;;;;4964277;28;20039;-64
2021/12/08 09:55:44;;;;;;;8.10;5.78;;;;;;;;;;4963760;28;20038;-64
2021/12/08 09:58:10;;;;;;;9.70;5.63;;;;;;;;;;4963536;28;20456;-65
2021/12/08 10:00:40;;;;;;;10.38;6.00;;;;;;;;;;4961861;28;20104;-64
2021/12/08 10:03:06;;;;;;;8.98;5.38;;;;;;;;;;4962370;28;20030;-66
2021/12/08 10:05:34;;;;;;;12.23;5.85;;;;;;;;;;4962540;28;20078;-67
2021/12/08 10:08:01;;;;;;;7.75;5.13;;;;;;;;;;4963610;28;20062;-66
2021/12/08 10:10:28;;;;;;;13.85;7.40;;;;;;;;;;4962913;28;20176;-66
2021/12/08 10:12:54;;;;;;;10.70;6.05;;;;;;;;;;4962531;28;20035;-64
2021/12/08 10:15:22;;;;;;;10.30;5.32;;;;;;;;;;4961833;28;20116;-65
2021/12/08 11:40:37;;;;;;;17.95;6.45;;;;;;;;;;5553864;23;20109;-65
2021/12/08 11:43:03;;;;;;;11.85;6.15;;;;;;;;;;4969098;28;20043;-66
2021/12/08 11:45:39;;;;;;;21.55;7.18;;;;;;;;;;4973545;28;20030;-66
2021/12/08 11:48:24;;;;;;;29.85;7.35;;;;;;;;;;4976036;28;20082;-66
2021/12/08 11:51:09;;;;;;;38.67;8.00;;;;;;;;;;4973459;28;20399;-66
2021/12/08 11:53:39;;;;;;;29.65;7.40;;;;;;;;;;4973485;28;20181;-66
2021/12/08 11:56:06;;;;;;;13.05;6.40;;;;;;;;;;4968735;28;20338;-66
2021/12/08 11:58:32;;;;;;;11.13;6.38;;;;;;;;;;4973138;28;20038;-67
2021/12/08 12:00:59;;;;;;;12.32;6.32;;;;;;;;;;4972847;28;20023;-66
2021/12/08 12:03:24;;;;;;;11.43;6.65;;;;;;;;;;4974155;28;20529;-66
2021/12/08 12:05:50;;;;;;;12.40;6.70;;;;;;;;;;4971666;28;20034;-67
2021/12/08 12:08:19;;;;;;;15.00;6.57;;;;;;;;;;4971660;28;20034;-66
2021/12/08 12:10:50;;;;;;;12.00;6.55;;;;;;;;;;4973674;28;20027;-67
2021/12/08 12:13:17;;;;;;;10.90;6.30;;;;;;;;;;4972908;28;20509;-67
2021/12/08 12:15:49;;;;;;;11.63;7.03;;;;;;;;;;4971254;28;20022;-68
2021/12/08 12:18:17;;;;;;;23.67;7.32;;;;;;;;;;4971278;28;20042;-67
2021/12/08 12:20:52;;;;;;;11.50;7.15;;;;;;;;;;4970946;28;20023;-68
2021/12/08 12:23:32;;;;;;;13.45;7.15;;;;;;;;;;4971329;28;20037;-67
2021/12/08 12:26:07;;;;;;;9.98;6.20;;;;;;;;;;4967252;28;20035;-67
2021/12/08 12:28:38;;;;;;;12.40;6.68;;;;;;;;;;4971883;28;20554;-66
2021/12/08 12:31:26;;;;;;;14.85;7.20;;;;;;;;;;4969186;28;20379;-67
2021/12/08 12:33:52;;;;;;;13.45;7.03;;;;;;;;;;4970652;28;20058;-65
2021/12/08 12:36:29;;;;;;;12.05;7.38;;;;;;;;;;4971310;28;20037;-66
2021/12/08 12:39:17;;;;;;;18.73;8.15;;;;;;;;;;4973237;28;20443;-66
2021/12/08 12:41:44;;;;;;;13.73;7.97;;;;;;;;;;4972158;28;20554;-68
2021/12/08 12:44:22;;;;;;;13.52;7.85;;;;;;;;;;4970130;28;20031;-66
2021/12/08 12:47:09;;;;;;;18.02;8.05;;;;;;;;;;4974294;28;20501;-65
2021/12/08 12:50:07;;;;;;;13.23;7.32;;;;;;;;;;4971318;28;20038;-67
2021/12/08 12:52:37;;;;;;;12.40;7.38;;;;;;;;;;4973776;28;20403;-68
2021/12/08 12:55:26;;;;;;;9.82;6.30;;;;;;;;;;4971619;28;20027;-66
2021/12/08 12:58:04;;;;;;;13.43;6.95;;;;;;;;;;4970125;28;20085;-67
2021/12/08 13:00:32;;;;;;;15.00;6.78;;;;;;;;;;4973212;28;20061;-69
2021/12/08 13:02:58;;;;;;;15.43;6.07;;;;;;;;;;4972524;28;20030;-66
2021/12/08 13:05:44;;;;;;;13.25;6.78;;;;;;;;;;4972783;28;20127;-67
2021/12/08 13:08:10;;;;;;;11.23;6.50;;;;;;;;;;4968962;28;20434;-67
2021/12/08 13:10:40;;;;;;;11.57;6.60;;;;;;;;;;4971973;28;20113;-66
2021/12/08 13:13:14;;;;;;;10.10;6.75;;;;;;;;;;4968510;28;20030;-68
2021/12/08 13:15:47;;;;;;;13.27;6.75;;;;;;;;;;4968212;28;20050;-66
2021/12/08 13:18:16;;;;;;;10.57;6.45;;;;;;;;;;4969873;28;20030;-68
2021/12/08 13:20:54;;;;;;;14.25;6.68;;;;;;;;;;4969305;28;20033;-66
2021/12/08 13:23:23;;;;;;;12.93;7.60;;;;;;;;;;4972797;28;20121;-68
2021/12/08 13:25:56;;;;;;;9.27;6.50;;;;;;;;;;4967656;28;20027;-68
2021/12/08 13:28:31;;;;;;;9.65;6.47;;;;;;;;;;4970311;28;20035;-67
2021/12/08 13:31:08;;;;;;;10.75;6.53;;;;;;;;;;4969411;28;20031;-67
2021/12/08 13:33:52;;;;;;;10.77;6.55;;;;;;;;;;4968725;28;20034;-67
2021/12/08 13:36:20;;;;;;;12.05;6.55;;;;;;;;;;4972991;28;20054;-67
2021/12/08 13:38:58;;;;;;;12.02;6.70;;;;;;;;;;4968900;28;20097;-65
2021/12/08 13:41:30;;;;;;;10.98;6.05;;;;;;;;;;4970424;28;20111;-65
2021/12/08 13:43:57;;;;;;;13.53;5.90;;;;;;;;;;4969661;28;20027;-66
2021/12/08 13:46:37;;;;;;;11.57;6.10;;;;;;;;;;4968843;28;20026;-66
2021/12/08 13:49:09;;;;;;;13.25;6.00;;;;;;;;;;4967194;28;20031;-66
2021/12/08 13:51:34;;;;;;;10.82;5.75;;;;;;;;;;4969527;28;20034;-65
2021/12/08 13:54:26;;;;;;;14.00;6.07;;;;;;;;;;4967577;28;20209;-65
2021/12/08 13:56:52;;;;;;;9.45;5.55;;;;;;;;;;4970042;28;20026;-65
2021/12/08 14:00:08;;;;;;;8.52;5.70;;;;;;;;;;4966688;28;20034;-67
2021/12/08 14:02:36;;;;;;;10.65;5.88;;;;;;;;;;4927961;28;20054;-67
2021/12/08 14:05:12;;;;;;;10.45;5.68;;;;;;;;;;4967837;28;20053;-65
2021/12/08 14:07:41;;;;;;;10.85;6.30;;;;;;;;;;4969869;28;20034;-66
2021/12/08 14:10:08;;;;;;;15.55;7.20;;;;;;;;;;4968825;28;20084;-67
2021/12/08 14:12:40;;;;;;;12.30;6.10;;;;;;;;;;4971333;28;20027;-66
2021/12/08 14:15:06;;;;;;;13.02;6.55;;;;;;;;;;4968274;28;20563;-67
2021/12/08 14:17:32;;;;;;;12.60;6.45;;;;;;;;;;4971261;28;20395;-67
2021/12/08 14:19:57;;;;;;;11.82;6.70;;;;;;;;;;4970268;28;20026;-66
2021/12/08 14:22:39;;;;;;;13.43;6.25;;;;;;;;;;4968575;28;20027;-66
2021/12/08 14:25:05;;;;;;;12.32;6.63;;;;;;;;;;4970957;28;20109;-65
2021/12/08 14:27:32;;;;;;;9.48;5.90;;;;;;;;;;4970625;28;20027;-66
2021/12/08 14:29:58;;;;;;;13.75;6.28;;;;;;;;;;4970339;28;20124;-67
2021/12/08 14:32:24;;;;;;;13.18;6.07;;;;;;;;;;4971819;28;20077;-65
2021/12/08 14:34:50;;;;;;;12.23;6.20;;;;;;;;;;4968028;28;20066;-68
2021/12/08 14:37:15;;;;;;;19.95;8.18;;;;;;;;;;4971809;28;20395;-65
2021/12/08 14:39:48;;;;;;;11.88;6.53;;;;;;;;;;4967042;28;20327;-65
2021/12/08 14:42:14;;;;;;;14.70;7.10;;;;;;;;;;4966375;28;20043;-65
2021/12/08 14:44:44;;;;;;;13.68;7.05;;;;;;;;;;4972323;28;20053;-66
2021/12/08 14:47:13;;;;;;;11.18;6.43;;;;;;;;;;4965678;28;20039;-71
2021/12/08 14:49:47;;;;;;;12.80;6.60;;;;;;;;;;4963991;28;20039;-66
2021/12/08 14:52:17;;;;;;;11.50;6.38;;;;;;;;;;4966160;28;20126;-67
2021/12/08 14:55:09;;;;;;;17.23;7.03;;;;;;;;;;4969389;28;20118;-66
2021/12/08 14:57:38;;;;;;;16.35;7.50;;;;;;;;;;4962645;28;20065;-67
2021/12/08 15:00:15;;;;;;;11.88;6.60;;;;;;;;;;4967891;28;20332;-64
2021/12/08 15:02:59;;;;;;;10.00;6.82;;;;;;;;;;4972566;28;20027;-65
2021/12/08 15:05:24;;;;;;;12.07;6.97;;;;;;;;;;4969072;28;20126;-65
2021/12/08 15:07:51;;;;;;;11.00;7.15;;;;;;;;;;4966914;28;20476;-65
2021/12/08 15:10:28;;;;;;;9.65;6.72;;;;;;;;;;4968420;28;20399;-65
2021/12/08 15:13:07;;;;;;;14.10;7.03;;;;;;;;;;4966588;28;20394;-65
2021/12/08 15:15:34;;;;;;;14.77;7.68;;;;;;;;;;4970052;28;20030;-66
2021/12/08 15:18:03;;;;;;;14.63;6.72;;;;;;;;;;4966227;28;20030;-66
2021/12/08 15:20:38;;;;;;;14.73;7.75;;;;;;;;;;4969578;28;20073;-65
2021/12/08 15:23:12;;;;;;;11.55;7.07;;;;;;;;;;4973801;28;20038;-65
2021/12/08 15:25:42;;;;;;;13.32;7.32;;;;;;;;;;4969972;28;20027;-65
2021/12/08 15:28:10;;;;;;;14.68;7.28;;;;;;;;;;4972156;28;20097;-65
2021/12/08 15:30:48;;;;;;;12.52;7.28;;;;;;;;;;4969703;28;20041;-65
2021/12/08 15:33:17;;;;;;;14.43;7.40;;;;;;;;;;4972572;28;20035;-65
2021/12/08 15:35:44;;;;;;;12.07;7.03;;;;;;;;;;4972124;28;20141;-65
2021/12/08 15:38:11;;;;;;;13.57;7.38;;;;;;;;;;4973836;28;20101;-65
2021/12/08 15:40:42;;;;;;;12.80;7.55;;;;;;;;;;4972671;28;20054;-65
2021/12/08 15:43:10;;;;;;;12.05;7.10;;;;;;;;;;4971889;28;20061;-67
2021/12/08 15:45:37;;;;;;;12.98;7.53;;;;;;;;;;4973307;28;20023;-67
2021/12/08 15:48:12;;;;;;;15.85;8.00;;;;;;;;;;4970321;28;20109;-67
2021/12/08 15:50:44;;;;;;;14.45;7.63;;;;;;;;;;4971263;28;20379;-67
2021/12/08 15:53:13;;;;;;;16.90;8.13;;;;;;;;;;4972077;28;20035;-66
2021/12/08 15:55:39;;;;;;;17.83;8.70;;;;;;;;;;4970596;28;20542;-68
2021/12/08 15:58:12;;;;;;;15.52;8.38;;;;;;;;;;4970747;28;20066;-66
2021/12/08 16:00:43;;;;;;;18.17;7.93;;;;;;;;;;4972138;28;20041;-66
2021/12/08 16:03:10;;;;;;;13.68;7.68;;;;;;;;;;4971072;28;20060;-66
2021/12/08 16:05:36;;;;;;;12.07;8.07;;;;;;;;;;4972782;28;20030;-68
2021/12/08 16:08:03;;;;;;;18.83;8.07;;;;;;;;;;4971637;28;20030;-67
2021/12/08 16:10:31;;;;;;;12.65;7.28;;;;;;;;;;4972339;28;20507;-67
2021/12/08 16:13:04;;;;;;;11.68;7.68;;;;;;;;;;4971093;28;20042;-66
2021/12/08 16:15:41;;;;;;;15.82;8.27;;;;;;;;;;4971779;28;20030;-67
2021/12/08 16:18:07;;;;;;;15.77;8.18;;;;;;;;;;4973712;28;20053;-67
2021/12/08 16:20:33;;;;;;;17.52;8.73;;;;;;;;;;4971503;28;20389;-67
2021/12/08 16:22:58;;;;;;;16.52;8.23;;;;;;;;;;4972276;28;20595;-67
2021/12/08 16:25:24;;;;;;;14.02;7.93;;;;;;;;;;4970835;28;20031;-67
2021/12/08 16:27:53;;;;;;;15.35;7.47;;;;;;;;;;4971614;28;20105;-66
2021/12/08 16:30:19;;;;;;;13.40;8.35;;;;;;;;;;4969828;28;20101;-67
2021/12/08 16:32:45;;;;;;;18.55;10.10;;;;;;;;;;4972279;28;20086;-67
2021/12/08 16:35:11;;;;;;;20.27;9.35;;;;;;;;;;4972989;28;20127;-67
2021/12/08 16:37:36;;;;;;;15.95;9.88;;;;;;;;;;4970363;28;20114;-67
2021/12/08 16:45:21;;;;;;;21.05;9.80;;;;;;;;;;4971068;28;20045;-67
2021/12/08 16:47:47;;;;;;;17.67;10.15;;;;;;;;;;4970040;28;20023;-67
2021/12/08 16:50:15;;;;;;;19.02;11.00;;;;;;;;;;4971033;28;20023;-67
2021/12/08 16:52:42;;;;;;;17.63;10.50;;;;;;;;;;4971539;28;20062;-67
2021/12/08 16:55:09;;;;;;;17.77;10.32;;;;;;;;;;4970949;28;20114;-67
2021/12/08 16:57:37;;;;;;;18.27;10.57;;;;;;;;;;4968301;28;20029;-66
2021/12/08 17:00:04;;;;;;;19.02;10.10;;;;;;;;;;4974315;28;20121;-67
2021/12/08 17:02:30;;;;;;;17.92;10.35;;;;;;;;;;4970596;28;20033;-67